Beşiktaş, Turkey

7:03 AM EEST on September 01, 2016 (GMT +0300)
| | Change Station

Elev -9999 ft 0.00 °N, 0.00 °E | Updated

Partly Cloudy
Partly Cloudy
78 °F
Feels Like 78 °F
N
12
Wind Variable Wind from NE
Gusts mph

Today
High -- | Low -- °F
--% Chance of Precip.
Yesterday
High -- | Low -- °F
Precip. -- in
Pressure 30.09 in
Visibility 6.2 miles
Clouds Few 3500 ft
Dew Point 60 °F
Humidity 53%
Rainfall --
Snow Depth Not available.
6:30 AM 7:36 PM
Waning Crescent, 0% visible
METAR LTBA 010350Z VRB05KT 9999 FEW035 23/12 Q1019 NOSIG RMK RWY17L 04007KT 360V070 RWY05 02008KT RWY23 03008KT
Pressure 30.09 in
Visibility 6.2 miles
Clouds Few 3500 ft
Dew Point 60 °F
Humidity 53%
Rainfall --
Snow Depth Not available.
6:30 AM 7:36 PM
Waning Crescent, 0% visible
METAR LTBA 010350Z VRB05KT 9999 FEW035 23/12 Q1019 NOSIG RMK RWY17L 04007KT 360V070 RWY05 02008KT RWY23 03008KT

10-Day Weather Forecast

×

Almanac

Astronomy

Sep. 01, 2016 Rise Set
Actual Time
Civil Twilight
Nautical Twilight
Astronomical Twilight
Moon
Length of Visible Light
Length of Day
Tomorrow will be .
, % of the Moon is Illuminated

Today's Extremes

Country Highs Country Lows

Community

WunderPhotos

Upload Photos

1,936,293 photos uploaded!

WunderBlog® & News

Nearby

Air Quality

  Air Quality AQ Index Pollutant
Not available.

Snow Depth

Station Depth Elevation

Earthquake Activity

City Distance Mag. Time & Date
Minimum magnitude displayed is 2.5.

Coastal Water Temperatures

Place Temperature

Stations

Nearby Weather Stations

Station Location Temp. Windchill Dew Point Humidity Wind Precip. Elev Updated Type